Nearby METAR Reports

 

KCPC - Whiteville, North Carolina, USA
Distance from station: NNE 17mi, 28km
Updated: 10/23/2020 5:35pm
Clear
Clear
 Wind from ENE
Wind: ENE 3 mph , 6 km/h
Temperature: 81°F , 27°C
Heat Index: 82°F , 28°C
Dew Point: 63°F , 17°C
Humidity: 54%
Barometer: 30.07 inHg , 1018.3 hPa
Clouds: Clear
Visibility: 10 miles , 16 km
2020/10/23 21:35 KCPC 232135Z AUTO 07003KT 10SM CLR 27/17 A3007 RMK AO2 T02650171
KCRE - North Myrtle Bea, South Carolina, USA
Distance from station: SSE 19mi, 31km
Updated: 10/23/2020 4:53pm
Clear
Clear
 Wind from ESE
Wind: ESE 7 mph , 11 km/h
Temperature: 77°F , 25°C
Dew Point: 66°F , 19°C
Humidity: 69%
Barometer: 30.06 inHg , 1017.9 hPa
Clouds: Clear
Visibility: 10 miles , 16 km
2020/10/23 20:53 KCRE 232053Z 12006KT 10SM CLR 25/19 A3006 RMK AO1 SLP180 T02500194 56011
 
KHYW - Conway-Horry Cty, South Carolina, USA
Distance from station: SW 22mi, 35km
Updated: 10/23/2020 5:55pm
Clear
Clear
 Wind from SSE
Wind: SSE 3 mph , 6 km/h
Temperature: 77°F , 25°C
Dew Point: 66°F , 19°C
Humidity: 69%
Barometer: 30.06 inHg , 1017.9 hPa
Clouds: Clear
Visibility: 10 miles , 16 km
2020/10/23 21:55 KHYW 232155Z AUTO 15003KT 10SM CLR 25/19 A3006 RMK AO2
KMAO - Marion, South Carolina, USA
Distance from station: WNW 28mi, 45km
Updated: 10/23/2020 5:35pm
Partly cloudy
Partly cloudy
 Wind from calm
Wind: Calm
Temperature: 79°F , 26°C
Dew Point: 64°F , 18°C
Humidity: 61%
Barometer: 30.05 inHg , 1017.6 hPa
Clouds: Partly cloudy
Visibility: 10 miles , 16 km
Cloud details: Partly cloudy 4300 ft
2020/10/23 21:35 KMAO 232135Z AUTO 00000KT 10SM SCT043 26/18 A3005 RMK AO2
 
KMYR - Myrtle Beach, South Carolina, USA
Distance from station: S 28mi, 45km
Updated: 10/23/2020 4:56pm
Clear
Clear
 Wind from E
Wind: E 5 mph , 7 km/h
Temperature: 77°F , 25°C
Dew Point: 68°F , 20°C
Humidity: 74%
Barometer: 30.07 inHg , 1018.3 hPa
Clouds: Clear
Visibility: 10 miles , 16 km
2020/10/23 20:56 KMYR 232056Z 10004KT 10SM CLR 25/20 A3007 RMK AO2 SLP182 T02500200 56013
KLBT - Lumberton, North Carolina, USA
Distance from station: NNW 39mi, 62km
Updated: 03/28/2019 9:55am
NOT Current

 
2019/03/28 13:55 KLBT 281355Z MKT MSM M M M M A0000 M M RMK TEST
 
KSUT - Southport, North Carolina, USA
Distance from station: E 46mi, 74km
Updated: 10/23/2020 5:35pm
Overcast
Overcast
 Wind from E
Wind: E 5 mph , 7 km/h
Temperature: 75°F , 24°C
Dew Point: 63°F , 17°C
Humidity: 65%
Barometer: 30.07 inHg , 1018.3 hPa
Clouds: Overcast
Visibility: 10 miles , 16 km
Cloud details: Overcast 6500 ft
2020/10/23 21:35 KSUT 232135Z AUTO 09004KT 10SM OVC065 24/17 A3007 RMK AO2 T02350172
KFLO - Florence, South Carolina, USA
Distance from station: W 50mi, 81km
Updated: 10/23/2020 4:53pm
Clear
Clear
 Wind from NNE
Wind: NNE 3 mph , 6 km/h
Temperature: 82°F , 28°C
Heat Index: 82°F , 28°C
Dew Point: 61°F , 16°C
Humidity: 48%
Barometer: 30.06 inHg , 1017.9 hPa
Clouds: Clear
Visibility: 10 miles , 16 km
2020/10/23 20:53 KFLO 232053Z 03003KT 10SM CLR 28/16 A3006 RMK AO2 SLP176 T02830161 56017